| time (UTC) | temp C | wind direction | speed KPH | gust KPH | rain 1hr cm | rain 24hr cm | rain mn cm | humidity % | barometer mb |
| 20260507051543 | 10 | 238 | 0.0 | 0.0 | 0.03 | 0.36 | 0.36 | 93 | 1006.7 |
| 20260507050043 | 10 | 242 | 0.0 | 0.0 | 0.03 | 0.36 | 0.36 | 93 | 1007.0 |
| 20260507044543 | 10 | 248 | 0.0 | 0.0 | 0.03 | 0.36 | 0.36 | 93 | 1007.2 |
| 20260507043023 | 10 | 234 | 0.0 | 0.0 | 0.03 | 0.36 | 0.36 | 93 | 1006.9 |
| 20260507041537 | 10 | 236 | 0.0 | 0.0 | 0.00 | 0.33 | 0.33 | 93 | 1007.3 |
| 20260507040003 | 10 | 234 | 0.0 | 0.0 | 0.00 | 0.33 | 0.33 | 93 | 1007.2 |
| 20260507034506 | 10 | 236 | 0.0 | 0.0 | 0.00 | 0.33 | 0.33 | 93 | 1007.2 |
| 20260507033044 | 10 | 228 | 0.0 | 0.0 | 0.00 | 0.33 | 0.33 | 93 | 1007.3 |
| 20260507031540 | 10 | 248 | 0.0 | 0.0 | 0.00 | 0.33 | 0.33 | 93 | 1007.3 |
| 20260507030023 | 10 | 234 | 0.0 | 0.0 | 0.00 | 0.33 | 0.33 | 93 | 1007.5 |
| 20260507024522 | 10 | 242 | 0.0 | 0.0 | 0.00 | 0.33 | 0.33 | 93 | 1007.4 |
| 20260507023004 | 10 | 271 | 0.0 | 0.0 | 0.00 | 0.33 | 0.33 | 93 | 1007.5 |
| 20260507021504 | 10 | 240 | 0.0 | 0.0 | 0.00 | 0.33 | 0.33 | 93 | 1007.3 |
| 20260507020045 | 10 | 231 | 0.0 | 0.0 | 0.00 | 0.33 | 0.33 | 93 | 1007.6 |
| 20260507014556 | 11 | 251 | 0.0 | 0.0 | 0.00 | 0.33 | 0.33 | 93 | 1007.7 |
| 20260507013040 | 10 | 229 | 0.0 | 0.0 | 0.00 | 0.33 | 0.33 | 93 | 1007.7 |
| 20260507011536 | 11 | 246 | 0.0 | 0.0 | 0.00 | 0.33 | 0.33 | 93 | 1007.9 |
| 20260507010009 | 11 | 251 | 0.0 | 0.0 | 0.00 | 0.33 | 0.33 | 93 | 1008.2 |
| 20260507004507 | 11 | 243 | 0.0 | 0.0 | 0.00 | 0.33 | 0.33 | 93 | 1008.1 |
| 20260507003106 | 11 | 258 | 0.0 | 0.0 | 0.00 | 0.33 | 0.33 | 93 | 1008.1 |
| 20260507001614 | 11 | 234 | 0.0 | 0.0 | 0.00 | 0.33 | 0.33 | 93 | 1007.9 |
| 20260507000055 | 11 | 252 | 0.0 | 0.0 | 0.00 | 0.33 | 0.33 | 93 | 1007.7 |
| 20260506234553 | 10 | 253 | 0.0 | 0.0 | 0.03 | 0.33 | 0.33 | 92 | 1007.9 |
| 20260506233052 | 10 | 235 | 0.0 | 0.0 | 0.03 | 0.33 | 0.33 | 92 | 1007.6 |
| 20260506231551 | 10 | 205 | 0.0 | 0.0 | 0.03 | 0.33 | 0.33 | 92 | 1007.6 |
| 20260506230050 | 10 | 186 | 0.0 | 0.0 | 0.08 | 0.33 | 0.33 | 92 | 1007.6 |
| 20260506224549 | 10 | 210 | 0.0 | 0.0 | 0.10 | 0.30 | 0.30 | 92 | 1007.6 |
| 20260506223103 | 10 | 171 | 0.0 | 0.0 | 0.15 | 0.30 | 0.30 | 92 | 1007.5 |
| 20260506221529 | 11 | 189 | 0.0 | 0.0 | 0.18 | 0.30 | 0.30 | 92 | 1007.6 |
| 20260506220027 | 11 | 187 | 0.0 | 0.0 | 0.15 | 0.25 | 0.25 | 92 | 1007.7 |
| 20260506214508 | 11 | 184 | 0.0 | 0.0 | 0.10 | 0.18 | 0.18 | 92 | 1007.8 |
| 20260506213010 | 11 | 243 | 0.0 | 0.0 | 0.08 | 0.15 | 0.15 | 92 | 1008.2 |
| 20260506211546 | 10 | 231 | 0.0 | 0.0 | 0.08 | 0.13 | 0.13 | 91 | 1008.4 |
| 20260506210045 | 10 | 244 | 0.0 | 0.0 | 0.05 | 0.10 | 0.10 | 91 | 1008.5 |
| 20260506204525 | 10 | 225 | 0.0 | 0.0 | 0.03 | 0.08 | 0.08 | 91 | 1008.5 |
| 20260506203024 | 11 | 193 | 0.0 | 0.0 | 0.05 | 0.08 | 0.08 | 91 | 1008.5 |
| 20260506201508 | 11 | 170 | 0.0 | 0.0 | 0.03 | 0.05 | 0.05 | 91 | 1008.7 |
| 20260506200004 | 11 | 203 | 0.0 | 0.0 | 0.05 | 0.05 | 0.05 | 91 | 1008.8 |
| 20260506194545 | 11 | 207 | 0.0 | 0.0 | 0.05 | 0.05 | 0.05 | 90 | 1008.9 |
| 20260506193045 | 11 | 172 | 0.0 | 0.0 | 0.03 | 0.03 | 0.03 | 89 | 1009.1 |
| 20260506191524 | 11 | 187 | 0.0 | 0.0 | 0.03 | 0.03 | 0.03 | 88 | 1009.1 |
| 20260506190022 | 11 | 211 | 0.0 | 0.0 | 0.00 | 0.00 | 0.00 | 88 | 1009.2 |
| 20260506184503 | 11 | 197 | 0.0 | 0.0 | 0.00 | 0.00 | 0.00 | 88 | 1009.4 |
| 20260506183003 | 11 | 254 | 0.0 | 0.0 | 0.00 | 0.00 | 0.00 | 88 | 1009.6 |
| 20260506181543 | 11 | 207 | 0.0 | 0.0 | 0.00 | 0.00 | 0.00 | 88 | 1009.7 |
| 20260506180049 | 11 | 164 | 0.0 | 17.7 | 0.00 | 0.00 | 0.00 | 88 | 1009.6 |
| 20260506174526 | 11 | 177 | 0.0 | 19.3 | 0.00 | 0.00 | 0.00 | 88 | 1009.8 |
| 20260506173020 | 11 | 181 | 0.0 | 4.8 | 0.00 | 0.00 | 0.00 | 87 | 1010.0 |
| 20260506171501 | 12 | 185 | 0.0 | 0.0 | 0.00 | 0.00 | 0.00 | 87 | 1010.3 |
| 20260506170100 | 12 | 177 | 0.0 | 0.0 | 0.00 | 0.00 | 0.00 | 87 | 1010.2 |
| 20260506164543 | 12 | 188 | 0.0 | 0.0 | 0.00 | 0.00 | 0.00 | 88 | 1010.4 |
| 20260506163048 | 11 | 189 | 0.0 | 0.0 | 0.00 | 0.00 | 0.00 | 88 | 1010.8 |
| 20260506161536 | 11 | 178 | 0.0 | 0.0 | 0.00 | 0.00 | 0.00 | 89 | 1010.9 |
| 20260506160025 | 11 | 189 | 0.0 | 0.0 | 0.00 | 0.00 | 0.00 | 89 | 1011.2 |
| 20260506154507 | 11 | 192 | 0.0 | 0.0 | 0.00 | 0.00 | 0.00 | 89 | 1011.2 |
| 20260506153009 | 11 | 161 | 0.0 | 0.0 | 0.00 | 0.00 | 0.00 | 88 | 1011.4 |
| 20260506151548 | 11 | 177 | 0.0 | 0.0 | 0.00 | 0.00 | 0.00 | 88 | 1011.6 |
| 20260506150048 | 11 | 182 | 0.0 | 0.0 | 0.00 | 0.00 | 0.00 | 87 | 1011.5 |
| 20260506144530 | 11 | 205 | 0.0 | 0.0 | 0.00 | 0.00 | 0.00 | 88 | 1011.9 |
| 20260506143030 | 11 | 189 | 0.0 | 0.0 | 0.00 | 0.00 | 0.00 | 88 | 1011.8 |
| 20260506141512 | 11 | 186 | 0.0 | 0.0 | 0.00 | 0.00 | 0.00 | 85 | 1011.8 |
| 20260506140012 | 12 | 223 | 0.0 | 0.0 | 0.00 | 0.00 | 0.00 | 85 | 1011.5 |
| 20260506134617 | 13 | 233 | 0.0 | 0.0 | 0.00 | 0.00 | 0.00 | 85 | 1011.4 |
| 20260506133054 | 13 | 227 | 0.0 | 0.0 | 0.00 | 0.00 | 0.00 | 85 | 1011.9 |
| 20260506131600 | 13 | 234 | 0.0 | 0.0 | 0.00 | 0.00 | 0.00 | 86 | 1012.2 |
| 20260506130040 | 13 | 224 | 0.0 | 0.0 | 0.00 | 0.00 | 0.00 | 87 | 1012.0 |
| 20260506124538 | 12 | 232 | 0.0 | 0.0 | 0.00 | 0.00 | 0.00 | 87 | 1012.1 |
| 20260506123044 | 12 | 238 | 0.0 | 0.0 | 0.00 | 0.00 | 0.00 | 88 | 1012.2 |
| 20260506121538 | 12 | 181 | 0.0 | 0.0 | 0.00 | 0.00 | 0.00 | 88 | 1012.2 |
| 20260506120036 | 12 | 222 | 0.0 | 0.0 | 0.00 | 0.00 | 0.00 | 88 | 1012.1 |
| 20260506114543 | 11 | 207 | 0.0 | 0.0 | 0.00 | 0.00 | 0.00 | 88 | 1012.2 |
| 20260506113037 | 12 | 235 | 0.0 | 0.0 | 0.00 | 0.00 | 0.00 | 89 | 1012.3 |
| 20260506111516 | 11 | 217 | 0.0 | 14.5 | 0.00 | 0.00 | 0.00 | 89 | 1012.3 |
| 20260506110017 | 11 | 231 | 0.0 | 0.0 | 0.00 | 0.00 | 0.00 | 89 | 1012.1 |
| 20260506104605 | 12 | 225 | 1.6 | 24.1 | 0.00 | 0.00 | 0.00 | 89 | 1012.2 |
| 20260506103105 | 11 | 210 | 0.0 | 0.0 | 0.00 | 0.00 | 0.00 | 89 | 1012.0 |
| 20260506101541 | 12 | 170 | 0.0 | 0.0 | 0.00 | 0.00 | 0.00 | 90 | 1011.7 |
| 20260506100039 | 12 | 219 | 0.0 | 0.0 | 0.00 | 0.00 | 0.00 | 89 | 1011.9 |
| 20260506094521 | 12 | 176 | 0.0 | 0.0 | 0.00 | 0.00 | 0.00 | 89 | 1012.0 |
| 20260506093020 | 12 | 229 | 0.0 | 0.0 | 0.00 | 0.00 | 0.00 | 89 | 1011.9 |
| 20260506091503 | 12 | 161 | 0.0 | 0.0 | 0.00 | 0.00 | 0.00 | 89 | 1012.2 |
| 20260506090001 | 12 | 222 | 0.0 | 0.0 | 0.00 | 0.00 | 0.00 | 89 | 1012.1 |
| 20260506084550 | 12 | 213 | 0.0 | 0.0 | 0.00 | 0.00 | 0.00 | 89 | 1012.4 |
| 20260506083108 | 12 | 252 | 0.0 | 0.0 | 0.00 | 0.00 | 0.00 | 89 | 1012.5 |
| 20260506081551 | 12 | 241 | 0.0 | 0.0 | 0.00 | 0.00 | 0.00 | 89 | 1012.5 |
| 20260506073046 | 12 | 222 | 0.0 | 0.0 | 0.00 | 0.00 | 0.00 | 89 | 1012.5 |
| 20260506071550 | 11 | 236 | 0.0 | 0.0 | 0.00 | 0.00 | 0.00 | 89 | 1012.4 |
| 20260506061507 | 11 | 230 | 0.0 | 0.0 | 0.00 | 0.00 | 0.00 | 88 | 1012.4 |